Weather reports worldwide

Advertisment
Lampedusa, Italy (16490): temperature & dewpoint: 10.11.2018 05:00:00 - 16.11.2018 05:00:00 (CET)Lampedusa, Italy (16490): wind speed: 10.11.2018 05:00:00 - 16.11.2018 05:00:00 (CET)Lampedusa, Italy (16490): wind direction: 10.11.2018 05:00:00 - 16.11.2018 05:00:00 (CET)Lampedusa, Italy (16490): visibility: 10.11.2018 05:00:00 - 16.11.2018 05:00:00 (CET)
Date & Time tt [°C] td [°C] ff [km/h] ff [kn] dd vv [km]
16.11.2018 05:00:00 - - - - - -
16.11.2018 04:00:00 - - - - - -
16.11.2018 03:00:00 - - - - - -
16.11.2018 02:00:00 - - - - - -
16.11.2018 01:00:00 - - - - - -
16.11.2018 00:00:00 - - - - - -
15.11.2018 23:00:00 - - - - - -
15.11.2018 22:00:00 19,0 15,0 15 8 ESE 10
15.11.2018 21:00:00 19,0 15,0 15 8 E 10
15.11.2018 20:00:00 19,0 15,0 13 7 E 10
15.11.2018 19:00:00 19,0 14,0 13 7 E 10
15.11.2018 18:00:00 19,0 14,0 9 5 ENE 10
15.11.2018 17:00:00 19,0 14,0 8 4 N 10
15.11.2018 16:00:00 20,0 14,0 4 2 S 10
15.11.2018 15:00:00 20,0 13,0 2 1 - 10
15.11.2018 14:00:00 20,0 14,0 5 3 SSW 10
15.11.2018 13:00:00 20,0 14,0 5 3 W 10
15.11.2018 12:00:00 20,0 14,0 5 3 SSW 10
15.11.2018 11:00:00 20,0 14,0 5 3 SW 10
15.11.2018 10:00:00 19,0 13,0 8 4 WSW 10
15.11.2018 09:00:00 19,0 13,0 5 3 NW 10
15.11.2018 08:00:00 17,0 12,0 8 4 NW 10
15.11.2018 07:00:00 17,0 12,0 9 5 NW 10
15.11.2018 06:00:00 17,0 12,0 8 4 NW 10
15.11.2018 05:00:00 - - - - - -
15.11.2018 04:00:00 - - - - - -
15.11.2018 03:00:00 - - - - - -
15.11.2018 02:00:00 - - - - - -
15.11.2018 01:00:00 - - - - - -
15.11.2018 00:00:00 - - - - - -
14.11.2018 23:00:00 - - - - - -
14.11.2018 22:00:00 18,0 13,0 5 3 NW 10
14.11.2018 21:00:00 18,0 13,0 4 2 NNW 10
14.11.2018 20:00:00 18,0 13,0 8 4 NNW 10
14.11.2018 19:00:00 18,0 13,0 13 7 NNW 10
14.11.2018 18:00:00 18,0 13,0 13 7 NNW 10
14.11.2018 17:00:00 19,0 13,0 9 5 NW 10
14.11.2018 16:00:00 20,0 14,0 11 6 NW 10
14.11.2018 15:00:00 21,0 15,0 13 7 NW 10
14.11.2018 14:00:00 21,0 15,0 13 7 NNW 10
14.11.2018 13:00:00 21,0 15,0 11 6 NW 10
14.11.2018 12:00:00 21,0 16,0 11 6 N 10
14.11.2018 11:00:00 21,0 16,0 9 5 NNE 10
14.11.2018 10:00:00 21,0 14,0 5 3 NNE 10
14.11.2018 09:00:00 20,0 15,0 4 2 NNW 10
14.11.2018 08:00:00 19,0 14,0 4 2 N 10
14.11.2018 07:00:00 19,0 14,0 8 4 ENE 10
14.11.2018 06:00:00 19,0 14,0 9 5 ENE 10
14.11.2018 05:00:00 - - - - - -
14.11.2018 04:00:00 - - - - - -
14.11.2018 03:00:00 - - - - - -
14.11.2018 02:00:00 - - - - - -
14.11.2018 01:00:00 - - - - - -
14.11.2018 00:00:00 - - - - - -
13.11.2018 23:00:00 - - - - - -
13.11.2018 22:00:00 20,0 14,0 13 7 E 10
13.11.2018 21:00:00 20,0 14,0 13 7 E 10
13.11.2018 20:00:00 20,0 14,0 15 8 E 10
13.11.2018 19:00:00 20,0 15,0 13 7 E 10
13.11.2018 18:00:00 20,0 15,0 15 8 E 10
13.11.2018 17:00:00 21,0 14,0 16 9 ESE 10
13.11.2018 16:00:00 21,0 15,0 18 10 E 10
13.11.2018 15:00:00 22,0 15,0 22 12 E 10
13.11.2018 14:00:00 22,0 16,0 26 14 E 10
13.11.2018 13:00:00 21,0 15,0 29 16 E 10
13.11.2018 12:00:00 21,0 16,0 28 15 E 10
13.11.2018 11:00:00 21,0 17,0 29 16 E 10
13.11.2018 10:00:00 21,0 16,0 29 16 E 10
13.11.2018 09:00:00 21,0 17,0 28 15 E 10
13.11.2018 08:00:00 21,0 17,0 21 11 E 10
13.11.2018 07:00:00 19,0 17,0 29 16 E 10
13.11.2018 06:00:00 20,0 17,0 28 15 ESE 10
13.11.2018 05:00:00 - - - - - -
13.11.2018 04:00:00 - - - - - -
13.11.2018 03:00:00 - - - - - -
13.11.2018 02:00:00 - - - - - -
13.11.2018 01:00:00 - - - - - -
13.11.2018 00:00:00 - - - - - -
12.11.2018 23:00:00 - - - - - -
12.11.2018 22:00:00 21,0 18,0 22 12 E 10
12.11.2018 21:00:00 21,0 18,0 24 13 E 10
12.11.2018 20:00:00 21,0 17,0 22 12 E 10
12.11.2018 19:00:00 21,0 18,0 29 16 E 10
12.11.2018 18:00:00 21,0 18,0 22 12 E 10
12.11.2018 17:00:00 21,0 17,0 28 15 E 10
12.11.2018 16:00:00 22,0 18,0 21 11 E 10
12.11.2018 15:00:00 22,0 18,0 24 13 E 10
12.11.2018 14:00:00 22,0 18,0 18 10 E 10
12.11.2018 13:00:00 22,0 18,0 18 10 E 10
12.11.2018 12:00:00 22,0 18,0 21 11 ENE 10
12.11.2018 11:00:00 22,0 19,0 24 13 E 10
12.11.2018 10:00:00 22,0 18,0 18 10 ENE 10
12.11.2018 09:00:00 21,0 17,0 24 13 E 10
12.11.2018 08:00:00 21,0 16,0 26 14 E 10
12.11.2018 07:00:00 21,0 18,0 24 13 ENE 10
12.11.2018 06:00:00 21,0 18,0 24 13 ENE 10
12.11.2018 05:00:00 - - - - - -
12.11.2018 04:00:00 - - - - - -
12.11.2018 03:00:00 - - - - - -
12.11.2018 02:00:00 - - - - - -
12.11.2018 01:00:00 - - - - - -
12.11.2018 00:00:00 - - - - - -
11.11.2018 23:00:00 - - - - - -
11.11.2018 22:00:00 21,0 18,0 24 13 ENE 10
11.11.2018 21:00:00 21,0 18,0 34 18 ENE 10
11.11.2018 20:00:00 21,0 18,0 34 18 ENE 10
11.11.2018 19:00:00 21,0 17,0 31 17 NE 10
11.11.2018 18:00:00 20,0 17,0 29 16 NE 10
11.11.2018 17:00:00 21,0 17,0 35 19 NE 10
11.11.2018 16:00:00 21,0 17,0 34 18 NE 10
11.11.2018 15:00:00 21,0 17,0 34 18 NE 10
11.11.2018 14:00:00 21,0 17,0 37 20 NNE 10
11.11.2018 13:00:00 22,0 16,0 37 20 NE 10
11.11.2018 12:00:00 20,0 16,0 29 16 ENE 10
11.11.2018 11:00:00 21,0 16,0 39 21 NE 10
11.11.2018 10:00:00 21,0 16,0 18 10 NE 10
11.11.2018 09:00:00 20,0 16,0 46 25 NNE 10
11.11.2018 08:00:00 19,0 15,0 29 16 ENE 10
11.11.2018 07:00:00 19,0 15,0 37 20 NNE 10
11.11.2018 06:00:00 19,0 15,0 21 11 NE 10
11.11.2018 05:00:00 - - - - - -
11.11.2018 04:00:00 - - - - - -
11.11.2018 03:00:00 - - - - - -
11.11.2018 02:00:00 - - - - - -
11.11.2018 01:00:00 - - - - - -
11.11.2018 00:00:00 - - - - - -
10.11.2018 23:00:00 - - - - - -
10.11.2018 22:00:00 16,0 13,0 22 12 NNW 10
10.11.2018 21:00:00 17,0 12,0 16 9 N 10
10.11.2018 20:00:00 17,0 12,0 18 10 N 10
10.11.2018 19:00:00 17,0 12,0 26 14 NNE 10
10.11.2018 18:00:00 17,0 12,0 24 13 NNE 10
10.11.2018 17:00:00 18,0 12,0 28 15 NNE 10
10.11.2018 16:00:00 18,0 13,0 28 15 NNE 10
10.11.2018 15:00:00 18,0 14,0 28 15 N 10
10.11.2018 14:00:00 18,0 14,0 31 17 N 10
10.11.2018 13:00:00 17,0 14,0 42 23 N 10
10.11.2018 12:00:00 18,0 14,0 37 20 N 10
10.11.2018 11:00:00 17,0 14,0 46 25 N 10
10.11.2018 10:00:00 17,0 15,0 29 16 N 7
10.11.2018 09:00:00 17,0 15,0 31 17 NNW 7
10.11.2018 08:00:00 16,0 14,0 26 14 NNW 6
10.11.2018 07:00:00 21,0 16,0 22 12 SE 10
10.11.2018 06:00:00 21,0 15,0 18 10 SSE 10
10.11.2018 05:00:00 - - - - - -

tt = temperature
td = dewpoint
ff = wind speed
dd = wind direction
vv = visibility

Next stations